createdAt,value
2023-04-11T00:01:02.026Z,100512.19
2023-04-11T00:03:29.172Z,100506.19
2023-04-11T00:05:56.453Z,100510.53
2023-04-11T00:08:23.421Z,100495.56
2023-04-11T00:10:50.512Z,100494.19
2023-04-11T00:13:19.866Z,100489.53
2023-04-11T00:15:47.757Z,100492.13
2023-04-11T00:18:15.025Z,100492.41
2023-04-11T00:20:42.025Z,100491.06
2023-04-11T00:23:09.067Z,100487.88
2023-04-11T00:25:37.360Z,100488.13
2023-04-11T00:28:04.699Z,100482.00
2023-04-11T00:30:31.720Z,100488.88
2023-04-11T00:32:58.755Z,100482.09
2023-04-11T00:35:25.965Z,100480.34
2023-04-11T00:37:56.163Z,100474.88
2023-04-11T00:40:23.335Z,100477.31
2023-04-11T00:42:50.500Z,100470.28
2023-04-11T00:45:17.516Z,100468.25
2023-04-11T00:47:44.723Z,100464.91
2023-04-11T00:50:14.167Z,100461.53
2023-04-11T00:52:42.814Z,100460.69
2023-04-11T00:55:10.818Z,100450.38
2023-04-11T00:57:38.524Z,100460.53
2023-04-11T01:00:10.221Z,100456.22
2023-04-11T01:02:45.174Z,100444.13
2023-04-11T01:05:14.874Z,100450.28
2023-04-11T01:07:46.984Z,100454.94
2023-04-11T01:10:15.800Z,100452.75
2023-04-11T01:12:46.055Z,100443.69
2023-04-11T01:15:13.069Z,100447.03
2023-04-11T01:17:41.829Z,100434.34
2023-04-11T01:20:10.309Z,100433.53
2023-04-11T01:22:38.671Z,100440.78
2023-04-11T01:25:06.344Z,100442.16
2023-04-11T01:27:34.213Z,100427.25
2023-04-11T01:30:01.973Z,100432.13
2023-04-11T01:32:29.000Z,100433.97
2023-04-11T01:34:58.759Z,100434.47
2023-04-11T01:37:25.902Z,100435.16
2023-04-11T01:39:53.201Z,100431.50
2023-04-11T01:42:21.942Z,100435.06
2023-04-11T01:44:53.560Z,100440.13
2023-04-11T01:47:20.635Z,100419.28
2023-04-11T01:49:47.638Z,100419.06
2023-04-11T01:52:14.591Z,100423.88
2023-04-11T01:54:41.557Z,100419.84
2023-04-11T01:57:08.568Z,100422.94
2023-04-11T01:59:35.741Z,100425.16
2023-04-11T02:02:02.952Z,100414.69
2023-04-11T02:04:30.342Z,100411.81
2023-04-11T02:06:57.366Z,100403.19
2023-04-11T02:09:24.459Z,100407.16
2023-04-11T02:11:51.457Z,100406.00
2023-04-11T02:14:20.447Z,100399.72
2023-04-11T02:16:56.146Z,100397.97
2023-04-11T02:19:26.259Z,100397.84
2023-04-11T02:21:53.444Z,100390.88
2023-04-11T02:24:20.474Z,100402.22
2023-04-11T02:26:47.510Z,100400.50
2023-04-11T02:29:14.549Z,100397.13
2023-04-11T02:31:41.558Z,100387.56
2023-04-11T02:34:09.048Z,100389.53
2023-04-11T02:36:36.601Z,100381.09
2023-04-11T02:39:03.680Z,100382.34
2023-04-11T02:41:30.854Z,100381.44
2023-04-11T02:43:57.840Z,100375.41
2023-04-11T02:46:25.049Z,100367.50
2023-04-11T02:48:52.065Z,100371.78
2023-04-11T02:51:19.024Z,100360.72
2023-04-11T02:53:46.170Z,100361.56
2023-04-11T02:56:18.754Z,100365.22
2023-04-11T02:58:47.043Z,100364.84
2023-04-11T03:01:17.260Z,100366.78
2023-04-11T03:03:45.207Z,100367.38
2023-04-11T03:06:12.328Z,100365.75
2023-04-11T03:08:39.322Z,100358.88
2023-04-11T03:11:06.676Z,100367.44
2023-04-11T03:13:33.864Z,100357.44
2023-04-11T03:16:00.937Z,100348.34
2023-04-11T03:18:28.026Z,100346.44
2023-04-11T03:20:56.145Z,100336.28
2023-04-11T03:23:23.310Z,100345.88
2023-04-11T03:25:50.995Z,100348.41
2023-04-11T03:28:18.064Z,100334.25
2023-04-11T03:30:46.547Z,100341.63
2023-04-11T03:33:13.589Z,100335.91
2023-04-11T03:35:40.667Z,100338.06
2023-04-11T03:38:07.744Z,100334.97
2023-04-11T03:40:35.050Z,100324.88
2023-04-11T03:43:04.317Z,100332.63
2023-04-11T03:45:31.809Z,100333.53
2023-04-11T03:47:58.879Z,100338.44
2023-04-11T03:50:26.089Z,100338.69
2023-04-11T03:52:53.120Z,100348.09
2023-04-11T03:55:20.518Z,100340.78
2023-04-11T03:57:47.645Z,100333.34
2023-04-11T04:00:14.914Z,100336.72
2023-04-11T04:02:42.171Z,100331.19
2023-04-11T04:05:09.589Z,100324.03
2023-04-11T04:07:36.660Z,100334.56
2023-04-11T04:10:04.985Z,100339.19
2023-04-11T04:12:32.162Z,100337.38
2023-04-11T04:14:59.231Z,100325.69
2023-04-11T04:17:27.344Z,100335.75
2023-04-11T04:19:54.361Z,100333.72
2023-04-11T04:22:22.382Z,100339.50
2023-04-11T04:24:49.397Z,100336.97
2023-04-11T04:27:19.249Z,100342.84
2023-04-11T04:29:48.418Z,100336.34
2023-04-11T04:32:23.223Z,100342.09
2023-04-11T04:34:55.299Z,100339.97
2023-04-11T04:37:25.996Z,100330.66
2023-04-11T04:40:02.237Z,100334.69
2023-04-11T04:42:30.258Z,100318.34
2023-04-11T04:44:57.602Z,100319.53
2023-04-11T04:47:29.707Z,100319.59
2023-04-11T04:49:57.554Z,100314.28
2023-04-11T04:52:29.164Z,100308.03
2023-04-11T04:54:58.099Z,100301.50
2023-04-11T04:57:27.247Z,100305.84
2023-04-11T04:59:56.127Z,100297.69
2023-04-11T05:02:23.358Z,100305.78
2023-04-11T05:04:50.549Z,100301.34
2023-04-11T05:07:18.380Z,100305.63
2023-04-11T05:09:45.444Z,100307.69
2023-04-11T05:12:13.970Z,100310.88
2023-04-11T05:14:41.161Z,100313.50
2023-04-11T05:17:08.159Z,100302.78
2023-04-11T05:19:35.466Z,100301.13
2023-04-11T05:22:02.455Z,100305.09
2023-04-11T05:24:29.485Z,100301.81
2023-04-11T05:26:56.741Z,100288.69
2023-04-11T05:29:23.791Z,100281.78
2023-04-11T05:31:50.938Z,100287.03
2023-04-11T05:34:17.922Z,100279.78
2023-04-11T05:36:47.229Z,100280.59
2023-04-11T05:39:14.251Z,100277.97
2023-04-11T05:41:41.977Z,100253.66
2023-04-11T05:44:09.011Z,100264.34
2023-04-11T05:46:37.312Z,100259.03
2023-04-11T05:49:04.427Z,100256.03
2023-04-11T05:51:31.729Z,100240.31
2023-04-11T05:53:58.995Z,100239.13
2023-04-11T05:56:26.140Z,100234.75
2023-04-11T05:58:53.090Z,100231.41
2023-04-11T06:01:20.132Z,100238.38
2023-04-11T06:03:48.083Z,100231.16
2023-04-11T06:06:15.819Z,100225.97
2023-04-11T06:08:43.088Z,100221.44
2023-04-11T06:11:11.308Z,100223.66
2023-04-11T06:13:38.359Z,100225.69
2023-04-11T06:16:06.922Z,100215.66
2023-04-11T06:18:34.100Z,100217.13
2023-04-11T06:21:01.213Z,100216.06
2023-04-11T06:23:28.257Z,100211.22
2023-04-11T06:25:55.366Z,100208.75
2023-04-11T06:28:22.381Z,100207.75
2023-04-11T06:30:49.483Z,100208.63
2023-04-11T06:33:16.533Z,100213.63
2023-04-11T06:35:43.576Z,100192.38
2023-04-11T06:38:10.654Z,100202.69
2023-04-11T06:40:37.672Z,100197.28
2023-04-11T06:43:04.741Z,100195.09
2023-04-11T06:45:31.799Z,100201.94
2023-04-11T06:47:58.846Z,100195.72
2023-04-11T06:50:26.076Z,100190.38
2023-04-11T06:52:53.046Z,100190.38
2023-04-11T06:55:21.101Z,100184.69
2023-04-11T06:57:48.044Z,100176.78
2023-04-11T07:00:16.339Z,100176.25
2023-04-11T07:02:44.798Z,100179.88
2023-04-11T07:05:12.251Z,100173.41
2023-04-11T07:07:39.768Z,100169.38
2023-04-11T07:10:07.797Z,100161.19
2023-04-11T07:12:34.811Z,100164.78
2023-04-11T07:15:03.824Z,100153.22
2023-04-11T07:17:31.610Z,100151.53
2023-04-11T07:19:58.612Z,100145.31
2023-04-11T07:22:25.807Z,100148.38
2023-04-11T07:24:55.338Z,100144.16
2023-04-11T07:27:23.470Z,100142.50
2023-04-11T07:29:50.741Z,100132.78
2023-04-11T07:32:17.938Z,100139.69
2023-04-11T07:34:44.946Z,100143.88
2023-04-11T07:37:12.567Z,100135.88
2023-04-11T07:39:40.774Z,100126.22
2023-04-11T07:42:08.133Z,100130.06
2023-04-11T07:44:35.358Z,100123.06
2023-04-11T07:47:02.359Z,100123.19
2023-04-11T07:49:29.646Z,100114.63
2023-04-11T07:51:56.640Z,100122.81
2023-04-11T07:54:25.321Z,100111.38
2023-04-11T07:56:52.431Z,100103.69
2023-04-11T07:59:19.429Z,100122.88
2023-04-11T08:01:46.581Z,100098.81
2023-04-11T08:04:14.309Z,100101.34
2023-04-11T08:06:41.552Z,100099.47
2023-04-11T08:09:08.547Z,100104.16
2023-04-11T08:11:35.641Z,100098.09
2023-04-11T08:14:03.270Z,100100.97
2023-04-11T08:16:30.311Z,100095.94
2023-04-11T08:18:59.253Z,100099.88
2023-04-11T08:21:26.755Z,100088.91
2023-04-11T08:23:53.859Z,100090.13
2023-04-11T08:26:21.271Z,100096.72
2023-04-11T08:28:48.360Z,100094.34
2023-04-11T08:31:15.586Z,100088.97
2023-04-11T08:33:42.787Z,100075.19
2023-04-11T08:36:11.123Z,100068.75
2023-04-11T08:38:39.645Z,100074.78
2023-04-11T08:41:06.991Z,100068.75
2023-04-11T08:43:38.993Z,100064.72
2023-04-11T08:46:12.065Z,100062.94
2023-04-11T08:48:39.472Z,100045.50
2023-04-11T08:51:06.941Z,100050.41
2023-04-11T08:53:37.984Z,100048.59
2023-04-11T08:56:05.224Z,100035.53
2023-04-11T08:58:32.349Z,100032.66
2023-04-11T09:01:29.939Z,100028.97
2023-04-11T09:03:59.396Z,100018.97
2023-04-11T09:06:32.736Z,100055.78
2023-04-11T09:09:02.416Z,100024.41
2023-04-11T09:11:29.493Z,100009.00
2023-04-11T09:14:10.754Z,100025.25
2023-04-11T09:16:53.029Z,100020.06
2023-04-11T09:19:29.270Z,100020.41
2023-04-11T09:22:04.165Z,100004.22
2023-04-11T09:24:33.386Z,99990.72
2023-04-11T09:27:16.950Z,99996.06
2023-04-11T09:29:48.944Z,99991.16
2023-04-11T09:32:34.164Z,99979.06
2023-04-11T09:35:12.775Z,99972.94
2023-04-11T09:37:56.030Z,99967.19
2023-04-11T09:40:26.347Z,99957.09
2023-04-11T09:43:04.264Z,99956.72
2023-04-11T09:45:38.247Z,99948.81
2023-04-11T09:48:09.018Z,99969.44
2023-04-11T09:50:38.575Z,99932.50
2023-04-11T09:53:06.967Z,99915.97
2023-04-11T09:55:33.954Z,99925.28
2023-04-11T09:58:01.409Z,99912.66
2023-04-11T10:00:30.281Z,99921.97
2023-04-11T10:02:57.528Z,99926.19
2023-04-11T10:05:30.456Z,99913.00
2023-04-11T10:08:14.640Z,99916.44
2023-04-11T10:10:44.126Z,99911.16
2023-04-11T10:13:41.217Z,99893.69
2023-04-11T10:16:16.543Z,99895.88
2023-04-11T10:18:55.214Z,99905.53
2023-04-11T10:21:42.858Z,99913.97
2023-04-11T10:24:18.063Z,99907.22
2023-04-11T10:26:53.644Z,99918.16
2023-04-11T10:29:40.539Z,99918.50
2023-04-11T10:32:16.691Z,99925.53
2023-04-11T10:34:52.470Z,99899.69
2023-04-11T10:37:40.040Z,99902.75
2023-04-11T10:40:11.447Z,99887.63
2023-04-11T10:42:46.828Z,99898.31
2023-04-11T10:45:30.460Z,99902.03
2023-04-11T10:47:57.469Z,99885.75
2023-04-11T10:50:27.235Z,99882.94
2023-04-11T10:52:59.409Z,99885.41
2023-04-11T10:55:29.435Z,99868.03
2023-04-11T10:58:16.811Z,99867.59
2023-04-11T11:00:49.829Z,99891.53
2023-04-11T11:03:34.152Z,99882.94
2023-04-11T11:06:09.437Z,99876.94
2023-04-11T11:08:43.449Z,99868.19
2023-04-11T11:11:11.746Z,99866.41
2023-04-11T11:13:56.219Z,99891.38
2023-04-11T11:16:26.513Z,99856.63
2023-04-11T11:18:56.346Z,99878.09
2023-04-11T11:21:28.163Z,99862.09
2023-04-11T11:24:02.806Z,99862.94
2023-04-11T11:26:36.749Z,99864.78
2023-04-11T11:29:05.796Z,99846.06
2023-04-11T11:31:42.659Z,99837.88
2023-04-11T11:36:46.669Z,99829.63
2023-04-11T11:39:14.302Z,99837.75
2023-04-11T11:41:41.770Z,99836.91
2023-04-11T11:44:23.949Z,99834.25
2023-04-11T11:47:17.990Z,99824.47
2023-04-11T11:49:52.958Z,99818.28
2023-04-11T11:52:40.571Z,99827.19
2023-04-11T11:55:19.521Z,99819.91
2023-04-11T11:57:47.885Z,99817.25
2023-04-11T12:00:23.477Z,99811.13
2023-04-11T12:02:54.273Z,99806.66
2023-04-11T12:05:24.071Z,99810.25
2023-04-11T12:07:54.981Z,99813.00
2023-04-11T12:10:22.018Z,99819.31
2023-04-11T12:12:53.334Z,99809.59
2023-04-11T12:15:24.160Z,99814.03
2023-04-11T12:17:53.798Z,99808.63
2023-04-11T12:20:26.416Z,99811.28
2023-04-11T12:22:55.056Z,99799.75
2023-04-11T12:25:23.088Z,99813.91
2023-04-11T12:27:50.248Z,99799.78
2023-04-11T12:30:17.347Z,99811.38
2023-04-11T12:32:45.832Z,99805.19
2023-04-11T12:35:13.662Z,99790.06
2023-04-11T12:37:41.263Z,99793.66
2023-04-11T12:40:11.270Z,99773.97
2023-04-11T12:42:53.289Z,99767.81
2023-04-11T12:45:23.149Z,99770.53
2023-04-11T12:47:50.281Z,99767.00
2023-04-11T12:50:17.429Z,99775.03
2023-04-11T12:52:44.772Z,99759.91
2023-04-11T12:55:13.607Z,99755.44
2023-04-11T12:57:41.583Z,99774.13
2023-04-11T13:00:11.588Z,99760.84
2023-04-11T13:02:44.019Z,99746.59
2023-04-11T13:05:16.498Z,99750.22
2023-04-11T13:07:45.056Z,99750.19
2023-04-11T13:10:14.116Z,99739.53
2023-04-11T13:12:44.497Z,99746.66
2023-04-11T13:15:13.872Z,99754.66
2023-04-11T13:17:41.069Z,99739.50
2023-04-11T13:20:10.680Z,99752.84
2023-04-11T13:22:44.774Z,99735.09
2023-04-11T13:25:12.493Z,99730.66
2023-04-11T13:27:41.607Z,99730.66
2023-04-11T13:30:10.650Z,99722.66
2023-04-11T13:32:37.833Z,99718.16
2023-04-11T13:35:05.905Z,99717.25
2023-04-11T13:37:33.177Z,99704.78
2023-04-11T13:40:00.581Z,99734.16
2023-04-11T13:42:27.570Z,99707.47
2023-04-11T13:44:54.665Z,99703.91
2023-04-11T13:47:21.742Z,99697.72
2023-04-11T13:49:48.750Z,99694.16
2023-04-11T13:52:15.763Z,99703.03
2023-04-11T13:54:42.815Z,99696.00
2023-04-11T13:57:09.875Z,99682.47
2023-04-11T13:59:36.940Z,99687.81
2023-04-11T14:02:04.171Z,99689.72
2023-04-11T14:04:31.524Z,99679.94
2023-04-11T14:06:58.578Z,99682.44
2023-04-11T14:09:25.616Z,99684.28
2023-04-11T14:11:52.721Z,99675.38
2023-04-11T14:14:19.842Z,99672.78
2023-04-11T14:16:46.988Z,99669.06
2023-04-11T14:19:14.878Z,99672.78
2023-04-11T14:21:42.089Z,99671.00
2023-04-11T14:24:09.706Z,99663.00
2023-04-11T14:26:37.241Z,99666.50
2023-04-11T14:29:04.795Z,99652.09
2023-04-11T14:31:32.153Z,99654.78
2023-04-11T14:33:59.475Z,99649.34
2023-04-11T14:36:27.998Z,99638.03
2023-04-11T14:38:55.358Z,99648.69
2023-04-11T14:41:22.489Z,99651.50
2023-04-11T14:43:49.535Z,99659.63
2023-04-11T14:46:16.727Z,99648.00
2023-04-11T14:48:43.808Z,99644.47
2023-04-11T14:51:10.803Z,99642.63
2023-04-11T14:53:37.998Z,99630.88
2023-04-11T14:56:06.589Z,99627.56
2023-04-11T14:58:34.172Z,99643.53
2023-04-11T15:01:01.400Z,99636.47
2023-04-11T15:03:28.638Z,99633.69
2023-04-11T15:05:56.010Z,99642.66
2023-04-11T15:08:23.050Z,99638.31
2023-04-11T15:10:54.121Z,99633.81
2023-04-11T15:13:22.974Z,99636.53
2023-04-11T15:15:50.103Z,99627.63
2023-04-11T15:18:26.938Z,99634.75
2023-04-11T15:20:58.823Z,99626.78
2023-04-11T15:23:26.619Z,99621.50
2023-04-11T15:25:58.512Z,99622.31
2023-04-11T15:28:27.247Z,99616.16
2023-04-11T15:30:55.487Z,99628.59
2023-04-11T15:33:23.987Z,99624.19
2023-04-11T15:35:53.708Z,99616.19
2023-04-11T15:38:21.884Z,99615.31
2023-04-11T15:40:54.490Z,99614.41
2023-04-11T15:43:23.289Z,99617.06
2023-04-11T15:45:52.309Z,99597.56
2023-04-11T15:48:19.434Z,99607.31
2023-04-11T15:50:46.605Z,99598.41
2023-04-11T15:53:13.914Z,99601.13
2023-04-11T15:55:42.965Z,99590.47
2023-04-11T15:58:10.411Z,99593.13
2023-04-11T16:00:39.041Z,99593.16
2023-04-11T16:03:08.501Z,99592.25
2023-04-11T16:05:38.318Z,99589.56
2023-04-11T16:08:06.532Z,99591.34
2023-04-11T16:10:33.984Z,99586.91
2023-04-11T16:13:02.609Z,99586.00
2023-04-11T16:15:29.681Z,99583.38
2023-04-11T16:17:56.742Z,99590.50
2023-04-11T16:20:23.770Z,99584.28
2023-04-11T16:22:50.771Z,99576.28
2023-04-11T16:25:21.020Z,99580.75
2023-04-11T16:27:49.978Z,99580.72
2023-04-11T16:30:17.335Z,99577.13
2023-04-11T16:32:44.553Z,99574.50
2023-04-11T16:35:12.023Z,99576.28
2023-04-11T16:37:39.006Z,99562.06
2023-04-11T16:40:12.073Z,99578.94
2023-04-11T16:42:39.839Z,99573.59
2023-04-11T16:45:08.945Z,99567.41
2023-04-11T16:47:36.304Z,99575.38
2023-04-11T16:50:05.353Z,99566.50
2023-04-11T16:52:32.783Z,99575.38
2023-04-11T16:54:59.762Z,99562.03
2023-04-11T16:57:27.567Z,99562.06
2023-04-11T16:59:54.706Z,99562.94
2023-04-11T17:02:21.951Z,99568.25
2023-04-11T17:04:49.063Z,99554.94
2023-04-11T17:07:16.319Z,99563.78
2023-04-11T17:09:43.390Z,99551.34
2023-04-11T17:12:10.582Z,99562.00
2023-04-11T17:14:37.581Z,99556.69
2023-04-11T17:17:04.601Z,99552.25
2023-04-11T17:19:31.718Z,99554.03
2023-04-11T17:21:58.789Z,99554.91
2023-04-11T17:24:25.942Z,99559.34
2023-04-11T17:26:53.365Z,99560.22
2023-04-11T17:29:20.357Z,99550.44
2023-04-11T17:31:47.957Z,99550.50
2023-04-11T17:34:15.046Z,99553.13
2023-04-11T17:36:43.039Z,99541.63
2023-04-11T17:39:17.089Z,99543.44
2023-04-11T17:41:45.690Z,99538.94
2023-04-11T17:44:13.655Z,99548.66
2023-04-11T17:46:41.226Z,99546.88
2023-04-11T17:49:08.321Z,99555.72
2023-04-11T17:51:38.928Z,99557.44
2023-04-11T17:55:23.254Z,99569.88
2023-04-11T17:57:51.291Z,99560.03
2023-04-11T18:00:24.129Z,99567.06
2023-04-11T18:02:54.921Z,99567.91
2023-04-11T18:05:25.858Z,99564.38
2023-04-11T18:07:58.126Z,99560.00
2023-04-11T18:10:27.427Z,99566.00
2023-04-11T18:12:56.565Z,99573.09
2023-04-11T18:15:24.841Z,99565.16
2023-04-11T18:17:52.837Z,99575.91
2023-04-11T18:20:20.155Z,99577.53
2023-04-11T18:22:51.756Z,99582.97
2023-04-11T18:25:18.780Z,99588.13
2023-04-11T18:27:47.101Z,99589.09
2023-04-11T18:30:15.976Z,99588.19
2023-04-11T18:32:49.390Z,99581.91
2023-04-11T18:35:17.436Z,99587.19
2023-04-11T18:37:44.741Z,99586.34
2023-04-11T18:40:14.177Z,99589.75
2023-04-11T18:42:49.371Z,99584.50
2023-04-11T18:45:20.501Z,99588.94
2023-04-11T18:47:47.853Z,99588.84
2023-04-11T18:50:15.851Z,99606.34
2023-04-11T18:52:44.923Z,99587.81
2023-04-11T18:55:12.492Z,99587.16
2023-04-11T18:57:39.877Z,99586.94
2023-04-11T19:00:18.077Z,99591.28
2023-04-11T19:02:46.883Z,99592.25
2023-04-11T19:05:14.709Z,99593.94
2023-04-11T19:07:43.515Z,99592.16
2023-04-11T19:10:13.303Z,99579.63
2023-04-11T19:12:41.119Z,99584.09
2023-04-11T19:15:09.385Z,99577.84
2023-04-11T19:17:38.489Z,99585.69
2023-04-11T19:20:13.416Z,99582.97
2023-04-11T19:22:41.032Z,99580.41
2023-04-11T19:25:12.416Z,99582.97
2023-04-11T19:27:41.988Z,99578.56
2023-04-11T19:30:11.549Z,99581.16
2023-04-11T19:32:41.071Z,99562.44
2023-04-11T19:35:10.884Z,99588.25
2023-04-11T19:37:38.084Z,99577.38
2023-04-11T19:40:07.400Z,99575.72
2023-04-11T19:42:37.182Z,99587.00
2023-04-11T19:45:05.192Z,99579.91
2023-04-11T19:47:32.888Z,99574.72
2023-04-11T19:50:01.060Z,99576.53
2023-04-11T19:52:28.905Z,99578.97
2023-04-11T19:54:56.595Z,99570.06
2023-04-11T19:57:26.534Z,99575.31
2023-04-11T19:59:53.626Z,99588.50
2023-04-11T20:02:21.189Z,99581.41
2023-04-11T20:04:49.457Z,99587.63
2023-04-11T20:07:16.740Z,99584.75
2023-04-11T20:09:43.839Z,99586.53
2023-04-11T20:12:11.195Z,99592.69
2023-04-11T20:14:38.347Z,99589.28
2023-04-11T20:17:06.638Z,99598.75
2023-04-11T20:19:37.709Z,99591.88
2023-04-11T20:22:05.038Z,99589.22
2023-04-11T20:24:32.097Z,99590.22
2023-04-11T20:26:59.150Z,99582.25
2023-04-11T20:29:32.905Z,99583.06
2023-04-11T20:32:00.234Z,99581.25
2023-04-11T20:34:27.290Z,99578.63
2023-04-11T20:36:54.310Z,99568.97
2023-04-11T20:39:22.053Z,99576.78
2023-04-11T20:41:49.998Z,99577.66
2023-04-11T20:44:23.607Z,99567.97
2023-04-11T20:46:51.357Z,99570.75
2023-04-11T20:49:18.394Z,99573.63
2023-04-11T20:51:49.772Z,99576.97
2023-04-11T20:54:16.760Z,99576.44
2023-04-11T20:56:44.153Z,99580.59
2023-04-11T20:59:12.452Z,99577.09
2023-04-11T21:01:40.593Z,99572.66
2023-04-11T21:04:09.665Z,99579.56
2023-04-11T21:06:37.054Z,99582.22
2023-04-11T21:09:05.363Z,99580.44
2023-04-11T21:11:33.244Z,99582.09
2023-04-11T21:14:00.509Z,99578.78
2023-04-11T21:16:27.533Z,99574.28
2023-04-11T21:18:54.565Z,99571.56
2023-04-11T21:21:21.545Z,99578.69
2023-04-11T21:23:48.662Z,99574.44
2023-04-11T21:26:15.707Z,99573.47
2023-04-11T21:28:42.663Z,99583.06
2023-04-11T21:31:09.790Z,99586.56
2023-04-11T21:33:36.796Z,99596.31
2023-04-11T21:36:04.014Z,99593.78
2023-04-11T21:38:31.112Z,99596.38
2023-04-11T21:40:58.156Z,99603.22
2023-04-11T21:43:25.335Z,99601.41
2023-04-11T21:45:52.329Z,99589.91
2023-04-11T21:48:19.563Z,99587.28
2023-04-11T21:50:46.626Z,99584.75
2023-04-11T21:53:14.140Z,99589.78
2023-04-11T21:55:47.488Z,99582.56
2023-04-11T21:58:27.939Z,99583.16
2023-04-11T22:00:56.488Z,99588.44
2023-04-11T22:03:24.186Z,99579.63
2023-04-11T22:05:52.431Z,99581.44
2023-04-11T22:08:22.356Z,99576.66
2023-04-11T22:10:50.879Z,99587.19
2023-04-11T22:13:19.432Z,99588.09
2023-04-11T22:15:48.777Z,99585.31
2023-04-11T22:18:15.934Z,99588.81
2023-04-11T22:20:44.230Z,99593.13
2023-04-11T22:23:13.078Z,99579.00
2023-04-11T22:25:44.284Z,99579.63
2023-04-11T22:28:18.413Z,99572.47
2023-04-11T22:30:46.642Z,99578.59
2023-04-11T22:33:14.032Z,99573.50
2023-04-11T22:35:44.807Z,99570.94
2023-04-11T22:38:12.142Z,99570.59
2023-04-11T22:40:40.202Z,99568.13
2023-04-11T22:43:07.387Z,99570.44
2023-04-11T22:45:36.003Z,99568.72
2023-04-11T22:48:04.636Z,99577.50
2023-04-11T22:50:32.832Z,99574.78
2023-04-11T22:53:02.554Z,99584.31
2023-04-11T22:55:34.387Z,99572.91
2023-04-11T22:58:02.867Z,99575.38
2023-04-11T23:00:30.425Z,99568.97
2023-04-11T23:02:59.793Z,99563.25
2023-04-11T23:05:27.055Z,99572.47
2023-04-11T23:07:54.193Z,99574.63
2023-04-11T23:10:21.168Z,99577.13
2023-04-11T23:12:49.424Z,99573.91
2023-04-11T23:15:17.462Z,99572.69
2023-04-11T23:17:44.980Z,99573.38
2023-04-11T23:20:13.182Z,99574.16
2023-04-11T23:22:42.480Z,99561.16
2023-04-11T23:25:11.658Z,99568.03
2023-04-11T23:27:39.626Z,99569.81
2023-04-11T23:30:07.786Z,99568.97
2023-04-11T23:32:35.106Z,99565.50
2023-04-11T23:35:03.062Z,99561.81
2023-04-11T23:37:32.015Z,99567.72
2023-04-11T23:39:59.679Z,99575.63
2023-04-11T23:42:26.827Z,99572.28
2023-04-11T23:44:53.883Z,99565.31
2023-04-11T23:47:20.928Z,99571.44
2023-04-11T23:49:47.893Z,99559.06
2023-04-11T23:52:14.956Z,99562.56
2023-04-11T23:54:41.913Z,99561.38
2023-04-11T23:57:08.908Z,99570.16
2023-04-11T23:59:36.400Z,99564.00
